createdAt,value
2022-11-08T00:02:42.198Z,17.35
2022-11-08T00:08:38.141Z,16.13
2022-11-08T00:14:15.103Z,17.27
2022-11-08T00:19:52.101Z,18.83
2022-11-08T00:25:30.129Z,17.92
2022-11-08T00:31:07.117Z,15.70
2022-11-08T00:36:44.086Z,15.95
2022-11-08T00:42:22.091Z,15.20
2022-11-08T00:47:59.097Z,14.73
2022-11-08T00:53:36.082Z,16.25
2022-11-08T00:59:15.094Z,15.93
2022-11-08T01:04:52.098Z,16.73
2022-11-08T01:10:29.141Z,17.63
2022-11-08T01:16:07.075Z,16.52
2022-11-08T01:21:44.079Z,14.82
2022-11-08T01:27:21.102Z,15.77
2022-11-08T01:32:59.083Z,15.55
2022-11-08T01:38:36.091Z,18.15
2022-11-08T01:44:14.094Z,18.77
2022-11-08T01:49:59.097Z,17.80
2022-11-08T01:55:41.061Z,19.00
2022-11-08T02:01:19.168Z,20.00
2022-11-08T02:06:59.080Z,18.25
2022-11-08T02:12:30.067Z,18.55
2022-11-08T02:18:07.097Z,21.05
2022-11-08T02:23:58.081Z,19.15
2022-11-08T02:29:44.119Z,16.08
2022-11-08T02:35:25.120Z,17.17
2022-11-08T02:41:06.047Z,13.20
2022-11-08T02:46:43.059Z,13.52
2022-11-08T02:52:20.142Z,12.75
2022-11-08T02:57:58.073Z,16.15
2022-11-08T03:04:36.063Z,21.33
2022-11-08T03:10:06.093Z,16.63
2022-11-08T03:16:02.071Z,21.23
2022-11-08T03:21:39.067Z,19.33
2022-11-08T03:27:16.085Z,18.75
2022-11-08T03:32:54.052Z,19.75
2022-11-08T03:38:31.054Z,20.27
2022-11-08T03:44:08.059Z,24.40
2022-11-08T03:49:46.060Z,22.02
2022-11-08T03:55:25.055Z,20.75
2022-11-08T04:01:02.105Z,21.27
2022-11-08T04:06:40.073Z,20.33
2022-11-08T04:12:35.069Z,19.75
2022-11-08T04:18:30.043Z,16.67
2022-11-08T04:24:08.073Z,18.10
2022-11-08T04:29:45.054Z,18.27
2022-11-08T04:35:22.059Z,20.83
2022-11-08T04:41:01.055Z,24.23
2022-11-08T04:46:40.047Z,24.40
2022-11-08T04:52:17.057Z,24.50
2022-11-08T04:57:55.037Z,22.27
2022-11-08T05:03:32.037Z,23.25
2022-11-08T05:09:11.051Z,22.20
2022-11-08T05:14:49.045Z,23.02
2022-11-08T05:20:43.058Z,25.75
2022-11-08T05:26:20.050Z,22.92
2022-11-08T05:31:58.053Z,24.13
2022-11-08T05:37:35.082Z,27.75
2022-11-08T05:43:12.043Z,35.20
2022-11-08T05:48:50.081Z,39.28
2022-11-08T05:54:27.057Z,24.38
2022-11-08T06:00:04.037Z,25.98
2022-11-08T06:05:42.053Z,28.92
2022-11-08T06:11:20.050Z,28.02
2022-11-08T06:16:57.041Z,26.20
2022-11-08T06:22:35.019Z,27.58
2022-11-08T06:28:14.024Z,29.80
2022-11-08T06:33:51.031Z,30.65
2022-11-08T06:39:29.029Z,28.38
2022-11-08T06:45:06.024Z,24.58
2022-11-08T06:50:44.070Z,22.88
2022-11-08T06:56:23.164Z,18.83
2022-11-08T07:02:00.311Z,20.03
2022-11-08T07:07:37.020Z,18.10
2022-11-08T07:13:17.377Z,18.45
2022-11-08T07:18:54.044Z,17.33
2022-11-08T07:24:31.043Z,15.55
2022-11-08T07:30:10.028Z,14.38
2022-11-08T07:35:47.036Z,17.37
2022-11-08T07:41:24.036Z,19.85
2022-11-08T07:47:02.053Z,20.30
2022-11-08T07:52:39.038Z,18.02
2022-11-08T07:58:16.006Z,19.38
2022-11-08T08:03:54.025Z,20.20
2022-11-08T08:09:31.016Z,20.42
2022-11-08T08:15:08.016Z,17.85
2022-11-08T08:20:47.073Z,15.98
2022-11-08T08:26:24.043Z,16.97
2022-11-08T08:32:01.014Z,17.48
2022-11-08T08:37:39.016Z,16.08
2022-11-08T08:43:17.359Z,16.75
2022-11-08T08:48:54.041Z,16.60
2022-11-08T08:54:32.021Z,17.10
2022-11-08T09:06:06.067Z,13.35
2022-11-08T09:11:44.005Z,13.90
2022-11-08T09:17:21.020Z,14.00
2022-11-08T09:22:58.009Z,13.52
2022-11-08T09:28:36.013Z,13.82
2022-11-08T09:34:15.042Z,12.75
2022-11-08T09:39:54.045Z,11.48
2022-11-08T09:45:39.019Z,10.18
2022-11-08T09:51:15.010Z,7.28
2022-11-08T09:56:53.038Z,7.22
2022-11-08T10:02:34.005Z,6.97
2022-11-08T10:08:22.029Z,7.72
2022-11-08T10:14:11.000Z,8.20
2022-11-08T10:20:17.016Z,7.93
2022-11-08T10:25:59.022Z,8.40
2022-11-08T10:31:36.013Z,7.75
2022-11-08T10:37:19.034Z,11.10
2022-11-08T10:43:04.354Z,7.05
2022-11-08T10:48:44.980Z,7.70
2022-11-08T10:54:16.002Z,9.37
2022-11-08T10:59:53.010Z,4.85
2022-11-08T11:05:42.997Z,4.00
2022-11-08T11:11:38.009Z,3.42
2022-11-08T11:17:18.080Z,3.28
2022-11-08T11:23:01.045Z,2.97
2022-11-08T11:28:40.044Z,3.40
2022-11-08T11:34:42.020Z,6.03
2022-11-08T11:40:30.995Z,3.47
2022-11-08T11:46:16.986Z,2.53
2022-11-08T11:51:53.989Z,2.40
2022-11-08T11:57:38.010Z,2.85
2022-11-08T12:03:44.996Z,2.90
2022-11-08T12:09:49.010Z,3.03
2022-11-08T12:15:35.004Z,3.08
2022-11-08T12:21:22.046Z,4.65
2022-11-08T12:27:06.988Z,3.03
2022-11-08T12:32:58.987Z,3.50
2022-11-08T12:38:46.986Z,3.10
2022-11-08T12:44:56.008Z,2.78
2022-11-08T12:50:48.000Z,3.33
2022-11-08T12:56:30.002Z,6.28
2022-11-08T13:02:08.017Z,6.50
2022-11-08T13:07:59.019Z,3.95
2022-11-08T13:13:46.008Z,3.22
2022-11-08T13:19:41.004Z,3.22
2022-11-08T13:25:21.992Z,3.30
2022-11-08T13:31:03.984Z,3.53
2022-11-08T13:36:51.020Z,2.88
2022-11-08T13:43:11.018Z,3.60
2022-11-08T13:49:19.987Z,3.63
2022-11-08T13:55:06.990Z,3.70
2022-11-08T14:01:00.033Z,3.75
2022-11-08T14:06:46.020Z,2.95
2022-11-08T14:12:29.009Z,7.00
2022-11-08T14:18:11.010Z,4.90
2022-11-08T14:23:51.986Z,3.35
2022-11-08T14:29:34.971Z,4.53
2022-11-08T14:35:28.995Z,3.72
2022-11-08T14:41:09.018Z,4.05
2022-11-08T14:46:50.005Z,3.88
2022-11-08T14:52:23.106Z,3.95
2022-11-08T14:58:01.039Z,4.30
2022-11-08T15:03:42.990Z,4.53
2022-11-08T15:09:21.997Z,5.85
2022-11-08T15:15:02.983Z,8.52
2022-11-08T15:20:41.013Z,7.68
2022-11-08T15:26:18.298Z,5.78
2022-11-08T15:32:01.446Z,4.35
2022-11-08T15:37:45.991Z,5.38
2022-11-08T15:43:50.002Z,4.15
2022-11-08T15:49:30.986Z,4.63
2022-11-08T15:55:08.981Z,5.47
2022-11-08T16:00:43.084Z,9.20
2022-11-08T16:06:20.064Z,9.55
2022-11-08T16:11:59.003Z,9.55
2022-11-08T16:17:35.997Z,20.70
2022-11-08T16:23:14.985Z,16.55
2022-11-08T16:28:54.000Z,16.53
2022-11-08T16:34:35.981Z,15.43
2022-11-08T16:40:13.000Z,17.67
2022-11-08T16:46:05.260Z,22.20
2022-11-08T16:51:50.100Z,28.50
2022-11-08T16:57:34.296Z,26.45
2022-11-08T17:03:12.962Z,26.35
2022-11-08T17:08:49.984Z,28.17
2022-11-08T17:14:26.990Z,34.20
2022-11-08T17:20:05.009Z,31.48
2022-11-08T17:25:41.999Z,34.75
2022-11-08T17:31:23.999Z,34.70
2022-11-08T17:37:01.975Z,42.03
2022-11-08T17:42:39.970Z,71.28
2022-11-08T17:48:17.993Z,40.50
2022-11-08T17:53:56.991Z,36.67
2022-11-08T17:59:32.070Z,43.85
2022-11-08T18:05:14.189Z,46.58
2022-11-08T18:10:51.972Z,43.05
2022-11-08T18:16:30.981Z,46.55
2022-11-08T18:22:10.963Z,45.92
2022-11-08T18:27:49.024Z,45.80
2022-11-08T18:33:25.991Z,45.30
2022-11-08T18:39:03.997Z,39.63
2022-11-08T18:44:41.953Z,34.63
2022-11-08T18:50:19.956Z,35.50
2022-11-08T18:55:58.953Z,33.58
2022-11-08T19:01:37.100Z,38.50
2022-11-08T19:07:14.001Z,33.33
2022-11-08T19:12:50.961Z,34.45
2022-11-08T19:18:28.971Z,37.30
2022-11-08T19:24:06.972Z,84.72
2022-11-08T19:29:43.943Z,48.13
2022-11-08T19:35:22.981Z,39.20
2022-11-08T19:40:59.972Z,38.03
2022-11-08T19:46:41.124Z,35.53
2022-11-08T19:52:20.159Z,35.28
2022-11-08T19:57:57.145Z,34.30
2022-11-08T20:03:34.141Z,36.35
2022-11-08T20:09:13.106Z,39.70
2022-11-08T20:14:50.074Z,37.93
2022-11-08T20:20:26.952Z,36.92
2022-11-08T20:26:04.957Z,38.65
2022-11-08T20:31:42.494Z,37.50
2022-11-08T20:37:20.971Z,37.38
2022-11-08T20:42:58.960Z,42.90
2022-11-08T20:48:35.980Z,75.43
2022-11-08T20:54:13.947Z,42.90
2022-11-08T20:59:51.984Z,40.95
2022-11-08T21:05:28.964Z,42.03
2022-11-08T21:11:08.986Z,39.95
2022-11-08T21:17:15.113Z,39.60
2022-11-08T21:22:44.972Z,42.60
2022-11-08T21:28:22.213Z,42.10
2022-11-08T21:34:01.958Z,43.97
2022-11-08T21:39:38.927Z,41.97
2022-11-08T21:45:15.931Z,42.65
2022-11-08T21:50:54.929Z,38.55
2022-11-08T21:56:32.056Z,41.93
2022-11-08T22:02:20.791Z,41.30
2022-11-08T22:07:58.977Z,41.30
2022-11-08T22:13:40.005Z,41.42
2022-11-08T22:19:16.959Z,36.22
2022-11-08T22:24:56.940Z,38.15
2022-11-08T22:30:33.955Z,37.38
2022-11-08T22:36:10.952Z,37.00
2022-11-08T22:41:48.971Z,35.65
2022-11-08T22:47:26.005Z,40.20
2022-11-08T22:53:02.968Z,36.10
2022-11-08T22:58:41.975Z,41.15
2022-11-08T23:04:19.955Z,39.37
2022-11-08T23:09:56.952Z,41.70
2022-11-08T23:15:54.962Z,43.20
2022-11-08T23:21:48.960Z,40.35
2022-11-08T23:27:44.961Z,39.75
2022-11-08T23:33:23.078Z,39.63
2022-11-08T23:38:59.954Z,38.63
2022-11-08T23:44:36.961Z,41.33
2022-11-08T23:50:14.954Z,42.30
2022-11-08T23:55:51.949Z,37.92
